| Record Date MM/DD/YYYY | Record Time HH:MM:SS | Record Julian Date NNN day of the year | Air Temperature Max (Degrees Fahrenheit F) | Time Max Air Temperature HH:MM:SS This is the time of max air temp for the prior hour interval listed for record [Time]. | Air Temperature Min (Degrees Fahrenheit F) | Time Min Air Temperature HH:MM:SS This is the time of min air temp for the prior hour interval listed for record [Time]. | Air Temperature Observed (Degrees Fahrenheit F) This is an instantaneous reading at the record [Time]. | Relative Humidity Max (Percent) | Time Max Relative Humidity HH:MM:SS This is the time of max relative humidity for the prior hour interval listed for record [Time]. | Relative Humidity Min (Percent) | Time Min Relative Humidity HH:MM:SS This is the time of min relative humidity for the prior hour interval listed for record [Time]. | Relative Humidity Observed (Percent) This is an instantaneous reading at the record [Time]. | Precipitation (Inches n.nn) rain fall that occurred during the prior hour interval listed for record [Time]. | Wind Speed (Miles Per Hour) Resultant Speed that occurred during the prior hour interval listed for record [Time]. | Wind Direction (Degrees) Resultant Direction that occurred during the prior hour interval listed for record [Time]. | Solar Radiation (Langley's) that occurred during the prior hour interval listed for record [Time]. | Soil Temperature Average at 2 inch depth (Degrees Fahrenheit F) that occurred during the prior hour interval listed for record [Time]. | Soil Temperature Observed at 2 inch depth (Degrees Fahrenheit F) This is an instantaneous reading at the record [Time]. | Soil Temperature Average at 4 inch depth (Degrees Fahrenheit F) that occurred during the prior hour interval listed for record [Time]. | Soil Temperature Observed at 4 inch depth (Degrees Fahrenheit F) This is an instantaneous reading at the record [Time]. |
|---|---|---|---|---|---|---|---|---|---|---|---|---|---|---|---|---|---|---|---|---|
| 04/30/2026 | 0:00:00 | 120 | 63 | 23:00:01 | 62 | 0:00:00 | 62 | 97 | 23:54:02 | 96 | 23:29:05 | 97 | 0 | 1.2 | 0 | |||||
| 04/30/2026 | 1:00:00 | 120 | 62 | 0:18:01 | 62 | 0:52:03 | 62 | 97 | 0:18:01 | 97 | 0:02:02 | 97.2 | 0.01 | 0.4 | 0 | |||||
| 04/30/2026 | 2:00:00 | 120 | 62 | 1:37:04 | 61 | 1:58:05 | 61 | 98 | 1:48:04 | 97 | 1:06:05 | 97.9 | 0.17 | 0.7 | 0 | |||||
| 04/30/2026 | 3:00:00 | 120 | 62 | 2:14:03 | 61 | 2:52:05 | 61 | 98 | 2:13:03 | 98 | 2:08:04 | 98 | 0 | 1.2 | 0 | |||||
| 04/30/2026 | 4:00:00 | 120 | 61 | 3:23:03 | 61 | 3:59:05 | 61 | 98 | 3:19:03 | 98 | 3:50:01 | 97.7 | 0.04 | 1.9 | 0 | |||||
| 04/30/2026 | 5:00:00 | 120 | 61 | 4:00:04 | 59 | 4:59:01 | 59 | 98 | 4:02:04 | 97 | 4:57:05 | 97.4 | 0 | 1.8 | 0 | |||||
| 04/30/2026 | 6:00:00 | 120 | 59 | 5:00:01 | 57 | 5:59:01 | 58 | 97 | 5:02:03 | 95 | 5:59:00 | 95.4 | 0.01 | 2.6 | 0 | |||||
| 04/30/2026 | 7:00:00 | 120 | 58 | 6:49:03 | 57 | 6:22:01 | 57 | 96 | 6:05:02 | 90 | 7:00:00 | 90.1 | 0 | 2.5 | 0 | |||||
| 04/30/2026 | 8:00:00 | 120 | 61 | 7:59:05 | 57 | 7:00:01 | 61 | 93 | 7:04:04 | 84 | 7:53:01 | 87.5 | 0 | 1.8 | 0 | |||||
| 04/30/2026 | 9:00:00 | 120 | 65 | 9:00:00 | 60 | 8:03:05 | 65 | 88 | 8:00:01 | 69 | 8:51:00 | 81.4 | 0 | 1.4 | 0 | |||||
| 04/30/2026 | 10:00:00 | 120 | 69 | 9:39:00 | 65 | 9:23:01 | 67 | 82 | 9:00:04 | 64 | 9:41:02 | 68.27 | 0 | 1.1 | 0 | |||||
| 04/30/2026 | 11:00:00 | 120 | 71 | 10:51:02 | 66 | 10:11:01 | 69 | 77 | 10:06:04 | 56 | 10:56:04 | 63.91 | 0 | 2.3 | 0 | |||||
| 04/30/2026 | 12:00:00 | 120 | 72 | 12:00:00 | 68 | 11:02:02 | 72 | 74 | 11:06:02 | 54 | 11:54:04 | 67.2 | 0 | 2.3 | 0 | |||||
| 04/30/2026 | 13:00:00 | 120 | 75 | 12:50:00 | 70 | 12:13:04 | 73 | 68 | 12:21:03 | 49 | 12:25:05 | 59.07 | 0 | 2.2 | 0 | |||||
| 04/30/2026 | 14:00:00 | 120 | 74 | 13:01:05 | 70 | 14:00:00 | 70 | 68 | 13:25:01 | 50 | 13:02:05 | 57.2 | 0 | 3.0 | 0 | |||||
| 04/30/2026 | 15:00:00 | 120 | 70 | 14:20:01 | 68 | 14:38:00 | 69 | 74 | 14:50:02 | 57 | 14:25:03 | 72.04 | 0 | 0.9 | 0 | |||||
| 04/30/2026 | 16:00:00 | 120 | 69 | 15:00:01 | 66 | 15:59:05 | 66 | 75 | 15:36:02 | 62 | 15:02:04 | 69.49 | 0 | 0.4 | 0 | |||||
| 04/30/2026 | 17:00:00 | 120 | 66 | 16:00:02 | 64 | 16:59:05 | 64 | 76 | 16:55:05 | 62 | 16:16:03 | 72.14 | 0 | 0.5 | 0 | |||||
| 04/30/2026 | 18:00:00 | 120 | 64 | 17:19:01 | 62 | 17:59:05 | 62 | 82 | 17:59:04 | 71 | 17:00:05 | 80.8 | 0 | 0.8 | 0 | |||||
| 04/30/2026 | 19:00:00 | 120 | 62 | 18:00:01 | 60 | 18:42:02 | 60 | 90 | 18:33:05 | 79 | 18:05:01 | 86.8 | 0 | 0.3 | 0 | |||||
| 04/30/2026 | 20:00:00 | 120 | 60 | 19:57:01 | 59 | 19:43:04 | 60 | 88 | 19:20:02 | 82 | 19:55:02 | 84.5 | 0 | 0.7 | 0 | |||||
| 04/30/2026 | 21:00:00 | 120 | 60 | 20:00:01 | 58 | 20:57:04 | 58 | 88 | 20:59:03 | 83 | 20:25:00 | 87.6 | 0 | 0.7 | 0 | |||||
| 04/30/2026 | 22:00:00 | 120 | 59 | 21:38:05 | 58 | 21:58:00 | 58 | 91 | 21:27:01 | 86 | 22:00:00 | 86.4 | 0 | 0.5 | 0 | |||||
| 04/30/2026 | 23:00:00 | 120 | 58 | 22:00:04 | 57 | 22:59:03 | 57 | 90 | 22:18:05 | 86 | 22:02:01 | 88.7 | 0 | 0.3 | 0 | |||||
| 05/01/2026 | 0:00:00 | 121 | 57 | 23:18:02 | 56 | 0:00:00 | 56 | 89 | 23:05:01 | 86 | 23:34:00 | 86.4 | 0 | 1.0 | 0 | |||||
| 05/01/2026 | 1:00:00 | 121 | 56 | 0:38:02 | 54 | 1:00:00 | 54 | 92 | 0:28:03 | 87 | 0:00:01 | 90.9 | 0 | 0.1 | 0 | |||||
| 05/01/2026 | 2:00:00 | 121 | 55 | 1:52:03 | 54 | 1:15:01 | 55 | 94 | 1:32:01 | 89 | 1:59:04 | 89.4 | 0 | 0.4 | 0 | |||||
| 05/01/2026 | 3:00:00 | 121 | 55 | 2:37:00 | 55 | 2:19:01 | 55 | 90 | 2:07:02 | 88 | 3:00:00 | 87.5 | 0 | 0.9 | 0 | |||||
| 05/01/2026 | 4:00:00 | 121 | 55 | 3:01:01 | 54 | 3:42:03 | 55 | 94 | 3:56:05 | 88 | 3:00:01 | 92.7 | 0 | 0.1 | 0 | |||||
| 05/01/2026 | 5:00:00 | 121 | 55 | 4:51:05 | 54 | 4:25:00 | 55 | 95 | 4:52:00 | 92 | 4:05:01 | 92.7 | 0 | 0.6 | 0 | |||||
| 05/01/2026 | 6:00:00 | 121 | 55 | 5:06:00 | 54 | 5:31:00 | 54 | 93 | 5:25:05 | 91 | 5:51:02 | 90.8 | 0 | 0.5 | 0 | |||||
| 05/01/2026 | 7:00:00 | 121 | 55 | 6:52:05 | 54 | 6:00:02 | 55 | 92 | 6:33:05 | 90 | 7:00:00 | 89.5 | 0 | 1.3 | 0 | |||||
| 05/01/2026 | 8:00:00 | 121 | 57 | 7:59:04 | 55 | 7:01:04 | 57 | 91 | 7:05:02 | 85 | 7:50:05 | 86.7 | 0 | 1.0 | 0 | |||||
| 05/01/2026 | 9:00:00 | 121 | 59 | 9:00:00 | 57 | 8:00:02 | 59 | 88 | 8:03:02 | 80 | 8:58:03 | 81.7 | 0 | 1.0 | 0 | |||||
| 05/01/2026 | 10:00:00 | 121 | 61 | 9:59:05 | 59 | 9:00:01 | 61 | 82 | 9:00:05 | 71 | 9:50:04 | 73.82 | 0 | 2.1 | 0 | |||||
| 05/01/2026 | 11:00:00 | 121 | 64 | 10:59:04 | 61 | 10:08:00 | 64 | 78 | 10:02:05 | 67 | 10:47:04 | 68.79 | 0 | 2.4 | 0 | |||||
| 05/01/2026 | 12:00:00 | 121 | 65 | 11:11:00 | 62 | 11:58:01 | 62 | 73 | 11:07:05 | 61 | 11:13:05 | 71.25 | 0 | 1.8 | 0 | |||||
| 05/01/2026 | 13:00:00 | 121 | 64 | 12:58:04 | 62 | 12:00:02 | 64 | 74 | 12:36:04 | 61 | 12:59:05 | 60.91 | 0 | 1.6 | 0 | |||||
| 05/01/2026 | 14:00:00 | 121 | 66 | 13:33:04 | 63 | 13:59:03 | 64 | 71 | 13:17:03 | 57 | 13:37:03 | 63.28 | 0 | 2.1 | 0 | |||||
| 05/01/2026 | 15:00:00 | 121 | 64 | 14:00:02 | 63 | 14:18:05 | 63 | 73 | 14:55:04 | 60 | 14:07:04 | 71.04 | 0 | 2.0 | 0 | |||||
| 05/01/2026 | 16:00:00 | 121 | 63 | 15:02:01 | 62 | 15:59:03 | 62 | 76 | 15:59:01 | 65 | 15:05:01 | 75.68 | 0 | 1.3 | 0 | |||||
| 05/01/2026 | 17:00:00 | 121 | 62 | 16:03:02 | 61 | 17:00:00 | 61 | 86 | 17:00:00 | 73 | 16:04:04 | 85.5 | 0 | 0.2 | 0 | |||||
| 05/01/2026 | 18:00:00 | 121 | 61 | 17:00:01 | 60 | 17:57:04 | 60 | 91 | 18:00:00 | 82 | 17:03:03 | 91.3 | 0 | 0.0 | 0 | |||||
| 05/01/2026 | 19:00:00 | 121 | 60 | 18:06:03 | 59 | 18:41:02 | 59 | 96 | 18:59:02 | 91 | 18:00:01 | 95.9 | 0 | 0.1 | 0 | |||||
| 05/01/2026 | 20:00:00 | 121 | 59 | 19:16:02 | 58 | 19:44:05 | 58 | 97 | 19:51:04 | 96 | 19:00:01 | 96.4 | 0 | 0.4 | 0 | |||||
| 05/01/2026 | 21:00:00 | 121 | 58 | 20:01:01 | 58 | 20:59:01 | 58 | 96 | 20:01:00 | 94 | 20:32:03 | 95.6 | 0 | 1.5 | 0 | |||||
| 05/01/2026 | 22:00:00 | 121 | 58 | 21:44:03 | 57 | 21:13:00 | 58 | 96 | 21:09:03 | 90 | 21:58:01 | 90 | 0 | 1.3 | 0 | |||||
| 05/01/2026 | 23:00:00 | 121 | 58 | 22:36:04 | 57 | 22:12:04 | 58 | 91 | 22:15:04 | 84 | 22:58:02 | 84.6 | 0 | 1.1 | 0 | |||||
| 05/02/2026 | 0:00:00 | 122 | 58 | 23:00:04 | 56 | 23:49:04 | 57 | 89 | 23:40:02 | 82 | 23:08:03 | 86.5 | 0 | 0.9 | 0 | |||||
| 05/02/2026 | 1:00:00 | 122 | 57 | 0:27:00 | 55 | 0:56:02 | 55 | 88 | 0:01:01 | 78 | 0:35:01 | 80.5 | 0 | 0.8 | 0 | |||||
| 05/02/2026 | 2:00:00 | 122 | 55 | 1:02:01 | 55 | 1:37:04 | 55 | 83 | 1:09:03 | 72 | 1:52:03 | 73.63 | 0 | 0.5 | 0 | |||||
| 05/02/2026 | 3:00:00 | 122 | 56 | 2:02:03 | 54 | 2:55:03 | 54 | 80 | 3:00:00 | 70 | 2:22:05 | 79.99 | 0 | 0.2 | 0 | |||||
| 05/02/2026 | 4:00:00 | 122 | 54 | 3:01:03 | 51 | 3:56:00 | 51 | 92 | 4:00:00 | 77 | 3:02:03 | 91.6 | 0 | 0.1 | 0 | |||||
| 05/02/2026 | 5:00:00 | 122 | 51 | 4:49:04 | 51 | 4:15:00 | 51 | 94 | 4:09:03 | 89 | 4:31:05 | 89.5 | 0 | 1.2 | 0 | |||||
| 05/02/2026 | 6:00:00 | 122 | 52 | 5:59:03 | 51 | 5:25:03 | 52 | 92 | 5:21:03 | 82 | 5:55:05 | 84.8 | 0 | 2.0 | 0 | |||||
| 05/02/2026 | 7:00:00 | 122 | 53 | 6:59:04 | 52 | 6:01:02 | 53 | 85 | 6:00:04 | 80 | 6:28:01 | 81.6 | 0 | 2.6 | 0 | |||||
| 05/02/2026 | 8:00:00 | 122 | 57 | 7:52:01 | 53 | 7:01:00 | 57 | 83 | 7:02:01 | 70 | 7:54:04 | 71.57 | 0 | 1.5 | 0 | |||||
| 05/02/2026 | 9:00:00 | 122 | 63 | 8:49:05 | 57 | 8:00:01 | 63 | 74 | 8:03:01 | 51 | 8:47:01 | 55.27 | 0 | 1.6 | 0 | |||||
| 05/02/2026 | 10:00:00 | 122 | 67 | 9:56:01 | 63 | 9:00:01 | 67 | 64 | 9:00:05 | 42 | 9:43:03 | 49.81 | 0 | 2.4 | 0 | |||||
| 05/02/2026 | 11:00:00 | 122 | 70 | 10:51:04 | 67 | 10:04:00 | 70 | 52 | 10:25:00 | 36 | 10:55:05 | 46.18 | 0 | 4.5 | 0 | |||||
| 05/02/2026 | 12:00:00 | 122 | 72 | 11:57:00 | 69 | 11:28:03 | 71 | 51 | 11:42:02 | 35 | 11:37:00 | 43.82 | 0 | 4.5 | 0 | |||||
| 05/02/2026 | 13:00:00 | 122 | 72 | 12:55:02 | 70 | 12:37:01 | 72 | 50 | 12:29:00 | 32 | 12:56:00 | 37.24 | 0 | 6.8 | 0 | |||||
| 05/02/2026 | 14:00:00 | 122 | 74 | 13:18:04 | 68 | 13:52:05 | 71 | 51 | 13:25:05 | 33 | 13:20:00 | 36.45 | 0 | 5.7 | 0 | |||||
| 05/02/2026 | 15:00:00 | 122 | 73 | 14:51:01 | 68 | 14:21:03 | 70 | 49 | 14:20:01 | 35 | 14:50:00 | 42.4 | 0 | 4.5 | 0 | |||||
| 05/02/2026 | 16:00:00 | 122 | 73 | 15:51:01 | 68 | 15:16:05 | 73 | 50 | 15:36:03 | 34 | 15:46:03 | 38.36 | 0 | 6.0 | 0 | |||||
| 05/02/2026 | 17:00:00 | 122 | 73 | 16:01:05 | 71 | 16:12:01 | 71 | 47 | 16:22:04 | 36 | 16:06:00 | 45.63 | 0 | 7.5 | 0 | |||||
| 05/02/2026 | 18:00:00 | 122 | 72 | 17:00:01 | 67 | 17:43:05 | 68 | 50 | 17:49:03 | 36 | 17:24:04 | 48.53 | 0 | 5.8 | 0 | |||||
| 05/02/2026 | 19:00:00 | 122 | 68 | 18:00:01 | 58 | 18:59:05 | 58 | 79 | 19:00:00 | 48 | 18:04:02 | 78.52 | 0 | 0.6 | 0 | |||||
| 05/02/2026 | 20:00:00 | 122 | 58 | 19:00:01 | 54 | 19:59:02 | 54 | 90 | 19:35:02 | 71 | 19:04:03 | 88.9 | 0 | 0.0 | 0 | |||||
| 05/02/2026 | 21:00:00 | 122 | 54 | 20:00:03 | 52 | 20:59:05 | 52 | 92 | 20:57:02 | 88 | 20:05:02 | 92.3 | 0 | 0.0 | 0 | |||||
| 05/02/2026 | 22:00:00 | 122 | 52 | 21:00:01 | 50 | 21:59:03 | 50 | 95 | 21:59:04 | 92 | 21:00:04 | 95.1 | 0 | 0.0 | 0 | |||||
| 05/02/2026 | 23:00:00 | 122 | 50 | 22:00:01 | 49 | 22:59:05 | 49 | 97 | 22:59:05 | 95 | 22:00:02 | 97 | 0 | 0.0 | 0 | |||||
| 05/03/2026 | 0:00:00 | 123 | 51 | 23:32:03 | 48 | 23:12:01 | 50 | 97 | 23:03:00 | 84 | 23:31:02 | 85.7 | 0 | 0.4 | 0 | |||||
| 05/03/2026 | 1:00:00 | 123 | 50 | 0:00:01 | 48 | 0:55:03 | 48 | 97 | 0:46:01 | 85 | 0:01:02 | 96.5 | 0 | 0.2 | 0 | |||||
| 05/03/2026 | 2:00:00 | 123 | 48 | 1:01:00 | 46 | 1:55:03 | 46 | 98 | 1:59:04 | 97 | 1:04:03 | 97.6 | 0 | 0.0 | 0 | |||||
| 05/03/2026 | 3:00:00 | 123 | 46 | 2:02:02 | 45 | 2:59:05 | 45 | 98 | 2:56:01 | 98 | 2:00:01 | 98 | 0 | 0.0 | 0 | |||||
| 05/03/2026 | 4:00:00 | 123 | 45 | 3:00:01 | 44 | 3:57:02 | 44 | 98 | 3:59:02 | 98 | 3:00:02 | 98.4 | 0 | 0.2 | 0 | |||||
| 05/03/2026 | 5:00:00 | 123 | 44 | 4:01:02 | 42 | 4:26:05 | 43 | 99 | 4:52:00 | 98 | 4:27:00 | 98.6 | 0 | 0.0 | 0 | |||||
| 05/03/2026 | 6:00:00 | 123 | 43 | 5:59:03 | 42 | 5:23:05 | 43 | 99 | 5:59:03 | 99 | 5:21:00 | 98.7 | 0 | 0.0 | 0 | |||||
| 05/03/2026 | 7:00:00 | 123 | 48 | 7:00:00 | 43 | 6:00:01 | 48 | 99 | 6:04:01 | 99 | 6:46:04 | 98.6 | 0 | 0.0 | 0 | |||||
| 05/03/2026 | 8:00:00 | 123 | 57 | 8:00:00 | 48 | 7:00:01 | 57 | 99 | 7:01:03 | 87 | 7:46:02 | 87.4 | 0 | 0.7 | 0 | |||||
| 05/03/2026 | 9:00:00 | 123 | 66 | 8:59:01 | 57 | 8:00:01 | 66 | 88 | 8:02:00 | 60 | 8:59:02 | 62.77 | 0 | 0.2 | 0 | |||||
| 05/03/2026 | 10:00:00 | 123 | 71 | 9:53:03 | 66 | 9:00:04 | 69 | 67 | 9:04:01 | 44 | 9:54:00 | 49.96 | 0 | 0.2 | 0 | |||||
| 05/03/2026 | 11:00:00 | 123 | 73 | 10:43:05 | 69 | 10:00:01 | 72 | 57 | 10:07:01 | 37 | 10:44:03 | 49.37 | 0 | 0.7 | 0 | |||||
| 05/03/2026 | 12:00:00 | 123 | 77 | 11:58:05 | 71 | 11:11:05 | 76 | 53 | 11:00:04 | 38 | 11:57:02 | 38.72 | 0 | 1.7 | 0 | |||||
| 05/03/2026 | 13:00:00 | 123 | 76 | 12:00:01 | 73 | 12:39:05 | 75 | 52 | 12:11:01 | 36 | 12:00:05 | 40.47 | 0 | 4.3 | 0 | |||||
| 05/03/2026 | 14:00:00 | 123 | 77 | 14:00:00 | 74 | 13:14:01 | 77 | 49 | 13:05:01 | 33 | 13:17:01 | 35.71 | 0 | 4.3 | 0 | |||||
| 05/03/2026 | 15:00:00 | 123 | 78 | 14:48:00 | 76 | 14:59:04 | 76 | 48 | 14:04:00 | 33 | 14:35:04 | 36.81 | 0 | 4.4 | 0 | |||||
| 05/03/2026 | 16:00:00 | 123 | 78 | 15:59:05 | 76 | 15:00:01 | 78 | 45 | 15:01:01 | 30 | 15:57:04 | 36.7 | 0 | 4.0 | 0 | |||||
| 05/03/2026 | 17:00:00 | 123 | 79 | 16:01:02 | 76 | 16:41:03 | 78 | 45 | 16:10:01 | 30 | 16:55:02 | 34.58 | 0 | 3.6 | 0 | |||||
| 05/03/2026 | 18:00:00 | 123 | 79 | 17:01:04 | 73 | 17:59:04 | 73 | 47 | 18:00:00 | 32 | 17:01:01 | 47.49 | 0 | 3.1 | 0 | |||||
| 05/03/2026 | 19:00:00 | 123 | 73 | 18:00:01 | 60 | 19:00:00 | 60 | 77 | 19:00:00 | 45 | 18:02:01 | 76.69 | 0 | 0.4 | 0 | |||||
| 05/03/2026 | 20:00:00 | 123 | 60 | 19:00:01 | 56 | 19:58:03 | 56 | 92 | 20:00:00 | 77 | 19:00:05 | 91.9 | 0 | 0.1 | 0 | |||||
| 05/03/2026 | 21:00:00 | 123 | 56 | 20:02:04 | 54 | 20:59:05 | 54 | 96 | 20:47:00 | 92 | 20:00:01 | 95.5 | 0 | 0.0 | 0 | |||||
| 05/03/2026 | 22:00:00 | 123 | 53 | 21:00:02 | 52 | 21:59:05 | 52 | 97 | 21:53:00 | 96 | 21:01:04 | 96.9 | 0 | 0.0 | 0 | |||||
| 05/03/2026 | 23:00:00 | 123 | 52 | 22:46:03 | 51 | 22:32:01 | 51 | 98 | 22:46:03 | 97 | 22:00:04 | 97.7 | 0 | 0.0 | 0 | |||||
| 05/04/2026 | 0:00:00 | 124 | 51 | 23:01:01 | 50 | 0:00:00 | 50 | 98 | 23:53:05 | 98 | 23:00:03 | 98 | 0 | 0.0 | 0 | |||||
| 05/04/2026 | 1:00:00 | 124 | 50 | 0:15:03 | 49 | 0:55:05 | 49 | 98 | 0:40:03 | 98 | 0:02:03 | 98.3 | 0 | 0.0 | 0 | |||||
| 05/04/2026 | 2:00:00 | 124 | 49 | 1:35:04 | 48 | 2:00:00 | 48 | 99 | 1:33:04 | 98 | 1:05:03 | 98.5 | 0 | 0.0 | 0 | |||||
| 05/04/2026 | 3:00:00 | 124 | 48 | 2:00:01 | 48 | 2:35:00 | 48 | 99 | 2:50:01 | 99 | 2:02:00 | 98.7 | 0 | 0.0 | 0 | |||||
| 05/04/2026 | 4:00:00 | 124 | 48 | 3:02:03 | 47 | 3:48:01 | 47 | 99 | 3:56:04 | 99 | 3:13:03 | 98.9 | 0 | 0.0 | 0 | |||||
| 05/04/2026 | 5:00:00 | 124 | 47 | 4:02:01 | 47 | 4:41:04 | 47 | 99 | 4:45:03 | 99 | 4:10:00 | 98.9 | 0 | 0.0 | 0 | |||||
| 05/04/2026 | 6:00:00 | 124 | 48 | 5:59:03 | 47 | 5:11:01 | 48 | 99 | 5:21:03 | 99 | 5:00:05 | 99 | 0 | 0.0 | 0 | |||||
| 05/04/2026 | 7:00:00 | 124 | 56 | 6:59:01 | 48 | 6:00:01 | 56 | 99 | 6:14:02 | 99 | 6:59:00 | 98.8 | 0 | 0.0 | 0 | |||||
| 05/04/2026 | 8:00:00 | 124 | 68 | 7:59:05 | 56 | 7:00:01 | 68 | 99 | 7:00:01 | 66 | 7:52:00 | 68.48 | 0 | 4.3 | 0 | |||||
| 05/04/2026 | 9:00:00 | 124 | 73 | 8:58:00 | 68 | 8:00:04 | 73 | 69 | 8:05:04 | 53 | 8:54:02 | 59.12 | 0 | 7.6 | 0 | |||||
| 05/04/2026 | 10:00:00 | 124 | 77 | 9:51:04 | 72 | 9:09:00 | 76 | 63 | 9:12:04 | 51 | 9:59:02 | 53.77 | 0 | 7.2 | 0 | |||||
| 05/04/2026 | 11:00:00 | 124 | 79 | 10:56:05 | 76 | 10:00:02 | 78 | 58 | 10:08:01 | 45 | 10:56:05 | 48.76 | 0 | 7.2 | 0 | |||||
| 05/04/2026 | 12:00:00 | 124 | 81 | 11:59:00 | 78 | 11:03:01 | 81 | 53 | 11:03:04 | 36 | 11:45:01 | 45.7 | 0 | 6.5 | 0 | |||||
| 05/04/2026 | 13:00:00 | 124 | 82 | 12:23:00 | 80 | 12:56:01 | 82 | 48 | 12:45:02 | 38 | 12:52:00 | 41.24 | 0 | 6.3 | 0 | |||||
| 05/04/2026 | 14:00:00 | 124 | 83 | 13:47:04 | 78 | 13:09:05 | 81 | 47 | 13:20:02 | 37 | 13:22:03 | 43.11 | 0 | 6.9 | 0 | |||||
| 05/04/2026 | 15:00:00 | 124 | 83 | 14:38:01 | 81 | 14:45:05 | 82 | 45 | 14:01:03 | 36 | 14:54:01 | 40.14 | 0 | 7.2 | 0 | |||||
| 05/04/2026 | 16:00:00 | 124 | 83 | 15:14:02 | 81 | 15:57:05 | 82 | 44 | 15:11:02 | 35 | 15:52:05 | 40.29 | 0 | 7.2 | 0 | |||||
| 05/04/2026 | 17:00:00 | 124 | 82 | 16:01:04 | 79 | 16:47:04 | 79 | 46 | 16:53:02 | 37 | 16:32:04 | 43.89 | 0 | 6.3 | 0 | |||||
| 05/04/2026 | 18:00:00 | 124 | 80 | 17:02:04 | 76 | 18:00:00 | 76 | 49 | 17:58:02 | 41 | 17:02:05 | 47.3 | 0 | 4.9 | 0 | |||||
| 05/04/2026 | 19:00:00 | 124 | 76 | 18:00:01 | 66 | 18:59:05 | 66 | 76 | 18:56:03 | 48 | 18:00:01 | 73.98 | 0 | 0.3 | 0 | |||||
| 05/04/2026 | 20:00:00 | 124 | 66 | 19:00:01 | 61 | 19:59:04 | 61 | 87 | 19:50:01 | 74 | 19:00:04 | 86.5 | 0 | 0.0 | 0 | |||||
| 05/04/2026 | 21:00:00 | 124 | 61 | 20:00:01 | 59 | 21:00:00 | 59 | 93 | 20:53:04 | 87 | 20:00:01 | 92.8 | 0 | 0.0 | 0 | |||||
| 05/04/2026 | 22:00:00 | 124 | 59 | 21:00:01 | 57 | 21:33:05 | 57 | 96 | 22:00:00 | 93 | 21:02:00 | 95.8 | 0 | 0.0 | 0 | |||||
| 05/04/2026 | 23:00:00 | 124 | 57 | 22:00:03 | 56 | 22:49:04 | 56 | 97 | 22:57:05 | 96 | 22:10:05 | 96.8 | 0 | 0.0 | 0 | |||||
| 05/05/2026 | 0:00:00 | 125 | 56 | 23:00:01 | 55 | 0:00:00 | 55 | 97 | 23:50:03 | 97 | 23:00:02 | 97.2 | 0 | 0.0 | 0 | |||||
| 05/05/2026 | 1:00:00 | 125 | 55 | 0:00:02 | 54 | 0:48:03 | 54 | 98 | 0:41:01 | 97 | 0:00:01 | 97.6 | 0 | 0.0 | 0 | |||||
| 05/05/2026 | 2:00:00 | 125 | 55 | 1:11:01 | 54 | 1:57:01 | 54 | 98 | 1:28:04 | 98 | 1:00:02 | 97.9 | 0 | 0.0 | 0 | |||||
| 05/05/2026 | 3:00:00 | 125 | 55 | 2:59:05 | 54 | 2:04:03 | 55 | 98 | 2:53:05 | 98 | 2:04:01 | 98.1 | 0 | 0.0 | 0 | |||||
| 05/05/2026 | 4:00:00 | 125 | 57 | 3:30:05 | 55 | 3:00:01 | 56 | 98 | 3:00:03 | 90 | 3:34:01 | 92.7 | 0 | 0.1 | 0 | |||||
| 05/05/2026 | 5:00:00 | 125 | 57 | 4:59:05 | 56 | 4:04:05 | 57 | 93 | 4:04:02 | 89 | 5:00:00 | 88.9 | 0 | 0.1 | 0 | |||||
| 05/05/2026 | 6:00:00 | 125 | 60 | 5:58:05 | 57 | 5:00:01 | 60 | 93 | 5:49:04 | 87 | 5:11:00 | 90.6 | 0 | 0.1 | 0 | |||||
| 05/05/2026 | 7:00:00 | 125 | 62 | 6:57:05 | 60 | 6:17:00 | 62 | 94 | 6:34:01 | 89 | 6:59:04 | 88.8 | 0 | 0.0 | 0 | |||||
| 05/05/2026 | 8:00:00 | 125 | 71 | 7:59:04 | 62 | 7:00:01 | 70 | 89 | 7:01:02 | 69 | 7:59:05 | 68.82 | 0 | 3.4 | 0 | |||||
| 05/05/2026 | 9:00:00 | 125 | 74 | 8:52:01 | 70 | 8:04:00 | 73 | 73 | 8:00:04 | 63 | 8:58:02 | 64.32 | 0 | 5.6 | 0 | |||||
| 05/05/2026 | 10:00:00 | 125 | 77 | 9:54:03 | 73 | 9:06:03 | 75 | 67 | 9:11:03 | 59 | 9:54:04 | 61.93 | 0 | 5.6 | 0 | |||||
| 05/05/2026 | 11:00:00 | 125 | 77 | 10:51:04 | 75 | 10:06:01 | 76 | 66 | 10:56:00 | 59 | 10:58:03 | 60.39 | 0 | 5.3 | 0 | |||||
| 05/05/2026 | 12:00:00 | 125 | 76 | 11:01:01 | 74 | 11:33:01 | 74 | 70 | 11:44:04 | 61 | 11:08:01 | 67.38 | 0 | 3.5 | 0 | |||||
| 05/05/2026 | 13:00:00 | 125 | 79 | 12:49:02 | 74 | 12:04:01 | 77 | 70 | 12:09:03 | 58 | 12:50:01 | 64.32 | 0 | 4.4 | 0 | |||||
| 05/05/2026 | 14:00:00 | 125 | 77 | 13:00:01 | 75 | 13:19:04 | 77 | 70 | 13:47:00 | 63 | 13:01:01 | 66.62 | 0 | 4.1 | 0 | |||||
| 05/05/2026 | 15:00:00 | 125 | 78 | 14:42:01 | 75 | 14:20:03 | 76 | 71 | 14:23:02 | 64 | 14:45:03 | 68.55 | 0 | 4.6 | 0 | |||||
| 05/05/2026 | 16:00:00 | 125 | 76 | 15:09:05 | 73 | 15:59:04 | 73 | 80 | 15:57:03 | 68 | 15:02:03 | 77.69 | 0 | 3.7 | 0 | |||||
| 05/05/2026 | 17:00:00 | 125 | 76 | 16:31:03 | 73 | 16:02:01 | 74 | 80 | 16:03:04 | 74 | 16:34:05 | 77.5 | 0 | 3.7 | 0 | |||||
| 05/05/2026 | 18:00:00 | 125 | 74 | 17:07:04 | 74 | 17:59:02 | 74 | 79 | 17:00:04 | 75 | 17:49:05 | 76.31 | 0 | 2.4 | 0 | |||||
| 05/05/2026 | 19:00:00 | 125 | 74 | 18:00:03 | 72 | 18:57:02 | 72 | 80 | 18:57:00 | 76 | 18:12:04 | 79.55 | 0 | 2.8 | 0 | |||||
| 05/05/2026 | 20:00:00 | 125 | 72 | 19:06:01 | 72 | 19:35:00 | 72 | 81 | 19:27:01 | 79 | 19:04:01 | 80.7 | 0 | 1.2 | 0 | |||||
| 05/05/2026 | 21:00:00 | 125 | 73 | 20:56:04 | 72 | 20:03:04 | 73 | 81 | 20:02:03 | 78 | 20:58:03 | 78.25 | 0 | 1.5 | 0 | |||||
| 05/05/2026 | 22:00:00 | 125 | 73 | 21:39:05 | 73 | 21:55:02 | 73 | 81 | 21:58:00 | 78 | 21:00:03 | 80.4 | 0 | 1.9 | 0 | |||||
| 05/05/2026 | 23:00:00 | 125 | 73 | 22:14:00 | 71 | 22:57:00 | 71 | 86 | 22:57:05 | 80 | 22:00:02 | 85.7 | 0 | 1.2 | 0 | |||||
| 05/06/2026 | 0:00:00 | 126 | 71 | 23:00:01 | 69 | 23:48:04 | 69 | 91 | 23:51:04 | 86 | 23:00:02 | 90.2 | 0 | 0.7 | 0 | |||||
| 05/06/2026 | 1:00:00 | 126 | 71 | 0:53:03 | 69 | 0:01:02 | 71 | 91 | 0:05:00 | 88 | 0:54:04 | 88.6 | 0 | 1.7 | 0 | |||||
| 05/06/2026 | 2:00:00 | 126 | 71 | 1:59:01 | 71 | 1:06:05 | 71 | 90 | 1:26:05 | 89 | 1:00:01 | 89.3 | 0 | 2.1 | 0 | |||||
| 05/06/2026 | 3:00:00 | 126 | 72 | 2:57:02 | 71 | 2:04:01 | 72 | 90 | 2:14:01 | 88 | 2:57:00 | 88.4 | 0 | 2.5 | 0 | |||||
| 05/06/2026 | 4:00:00 | 126 | 72 | 3:58:03 | 72 | 3:12:00 | 72 | 89 | 3:25:04 | 88 | 3:59:04 | 88.1 | 0 | 4.3 | 0 | |||||
| 05/06/2026 | 5:00:00 | 126 | 72 | 4:45:02 | 72 | 4:36:04 | 72 | 89 | 4:55:02 | 88 | 4:00:05 | 88.5 | 0 | 4.6 | 0 | |||||
| 05/06/2026 | 6:00:00 | 126 | 72 | 5:06:02 | 72 | 5:44:00 | 72 | 90 | 5:55:04 | 88 | 5:06:01 | 89.9 | 0 | 4.2 | 0 | |||||
| 05/06/2026 | 7:00:00 | 126 | 73 | 7:00:00 | 72 | 6:04:03 | 73 | 90 | 6:03:04 | 88 | 6:59:00 | 88 | 0 | 4.0 | 0 | |||||
| 05/06/2026 | 8:00:00 | 126 | 77 | 7:55:03 | 73 | 7:00:02 | 76 | 88 | 7:00:01 | 82 | 7:56:05 | 83.2 | 0 | 4.9 | 0 | |||||
| 05/06/2026 | 9:00:00 | 126 | 79 | 8:27:00 | 76 | 8:06:04 | 77 | 84 | 8:00:02 | 79 | 8:27:02 | 80.7 | 0 | 6.4 | 0 | |||||
| 05/06/2026 | 10:00:00 | 126 | 81 | 10:00:00 | 77 | 9:00:01 | 81 | 82 | 9:27:05 | 76 | 9:56:04 | 76.33 | 0 | 7.4 | 0 | |||||
| 05/06/2026 | 11:00:00 | 126 | 81 | 10:01:00 | 79 | 10:44:03 | 81 | 80 | 10:45:00 | 74 | 10:01:00 | 76.8 | 0 | 8.6 | 0 | |||||
| 05/06/2026 | 12:00:00 | 126 | 82 | 11:11:05 | 78 | 11:31:01 | 80 | 84 | 11:32:03 | 75 | 11:12:02 | 80.5 | 0 | 6.6 | 0 | |||||
| 05/06/2026 | 13:00:00 | 126 | 83 | 12:44:02 | 79 | 12:25:00 | 80 | 84 | 12:24:00 | 73 | 12:44:04 | 82.4 | 0 | 5.0 | 0 | |||||
| 05/06/2026 | 14:00:00 | 126 | 80 | 13:00:01 | 75 | 13:48:00 | 75 | 91 | 13:51:02 | 82 | 13:00:03 | 88.9 | 0 | 5.5 | 0 | |||||
| 05/06/2026 | 15:00:00 | 126 | 78 | 14:47:00 | 74 | 14:06:00 | 76 | 90 | 14:07:04 | 79 | 14:47:05 | 82.3 | 0 | 6.3 | 0 | |||||
| 05/06/2026 | 16:00:00 | 126 | 77 | 15:12:00 | 64 | 15:58:05 | 65 | 92 | 15:59:03 | 81 | 15:18:04 | 91.5 | 0 | 8.4 | 0 | |||||
| 05/06/2026 | 17:00:00 | 126 | 65 | 16:00:02 | 62 | 16:56:02 | 62 | 93 | 16:22:01 | 89 | 17:00:00 | 88.6 | 0 | 7.1 | 0 | |||||
| 05/06/2026 | 18:00:00 | 126 | 63 | 17:28:01 | 62 | 17:00:05 | 62 | 92 | 18:00:00 | 87 | 17:30:04 | 91.6 | 0 | 0.7 | 0 | |||||
| 05/06/2026 | 19:00:00 | 126 | 62 | 18:00:01 | 61 | 18:51:04 | 62 | 94 | 18:59:02 | 92 | 18:00:01 | 94.4 | 0 | 0.4 | 0 | |||||
| 05/06/2026 | 20:00:00 | 126 | 62 | 19:00:02 | 60 | 19:51:00 | 60 | 95 | 19:51:04 | 93 | 19:12:04 | 94.9 | 0 | 2.1 | 0 | |||||
| 05/06/2026 | 21:00:00 | 126 | 60 | 20:01:01 | 60 | 20:54:02 | 60 | 96 | 21:00:00 | 95 | 20:10:04 | 95.6 | 0 | 1.5 | 0 | |||||
| 05/06/2026 | 22:00:00 | 126 | 60 | 21:01:02 | 58 | 21:57:01 | 58 | 98 | 21:59:00 | 95 | 21:07:02 | 97.4 | 0.1 | 1.6 | 0 | |||||
| 05/06/2026 | 23:00:00 | 126 | 58 | 22:00:01 | 58 | 22:42:03 | 58 | 98 | 22:52:05 | 97 | 22:01:04 | 97.7 | 0 | 1.1 | 0 | |||||
| 05/07/2026 | 0:00:00 | 127 | 58 | 23:20:00 | 57 | 23:42:04 | 57 | 98 | 23:16:04 | 98 | 23:40:04 | 97.7 | 0 | 1.8 | 0 | |||||
| 05/07/2026 | 1:00:00 | 127 | 57 | 0:00:01 | 57 | 0:52:03 | 57 | 98 | 0:00:03 | 97 | 0:58:00 | 97.4 | 0 | 3.1 | 0 | |||||
| 05/07/2026 | 2:00:00 | 127 | 57 | 1:04:04 | 56 | 1:41:00 | 56 | 98 | 1:59:05 | 97 | 1:12:03 | 97.7 | 0 | 3.6 | 0 | |||||
| Average | 64.72 | 62.11 | 63.38 | 82.81 | 74.47 | 78.75 | 0 | 2.21 | 0 | 0 | 0 | 0 | 0 | |||||||
| Total | 0.33 |